ADDS METAR Data INFO
IDs: Format: Raw Decoded Include TAF

Data at: 1011 UTC 12 Dec 2017

KSZT 120955Z AUTO 00000KT 10SM CLR M08/M09 A3060 RMK AO2
KSZT 120935Z AUTO 00000KT 10SM CLR M08/M09 A3060 RMK AO2
KSZT 120915Z AUTO 00000KT 10SM CLR M08/M08 A3060 RMK AO2
KSZT 120855Z AUTO 00000KT 10SM CLR M08/M08 A3059 RMK AO2
KSZT 120835Z AUTO 00000KT 10SM CLR M08/M09 A3059 RMK AO2
KSZT 120815Z AUTO 00000KT 10SM CLR M08/M08 A3058 RMK AO2
KSZT 120800Z AUTO 00000KT 10SM CLR M08/M08 A3058 RMK AO2
KSZT 120735Z AUTO 00000KT 10SM CLR M07/M08 A3058 RMK AO2
KSZT 120715Z AUTO 00000KT 10SM CLR M06/M07 A3058 RMK AO2
KSZT 120655Z AUTO 36004KT 10SM CLR M06/M07 A3059 RMK AO2
KSZT 120640Z AUTO 28003KT 10SM CLR M07/M07 A3059 RMK AO2
KSZT 120615Z AUTO 00000KT 10SM CLR M07/M07 A3058 RMK AO2
KSZT 120555Z AUTO 00000KT 10SM CLR M06/M06 A3057 RMK AO2
KSZT 120535Z AUTO 00000KT 10SM CLR M06/M07 A3057 RMK AO2
KSZT 120515Z AUTO 00000KT 10SM CLR M06/M07 A3057 RMK AO2
KSZT 120455Z AUTO 00000KT 10SM CLR M06/M07 A3056 RMK AO2
KSZT 120435Z AUTO 28003KT 10SM CLR M06/M07 A3057 RMK AO2
KSZT 120415Z AUTO 00000KT 10SM CLR M06/M06 A3057 RMK AO2
KSZT 120355Z AUTO 00000KT 10SM CLR M06/M06 A3057 RMK AO2
KSZT 120335Z AUTO 26004KT 10SM CLR M05/M05 A3057 RMK AO2
KSZT 120315Z AUTO 00000KT 10SM CLR M05/M06 A3056 RMK AO2
KSZT 120255Z AUTO 00000KT 10SM CLR M04/M05 A3056 RMK AO2
KSZT 120235Z AUTO 29003KT 10SM CLR M03/M05 A3057 RMK AO2
KSZT 120215Z AUTO 00000KT 10SM CLR M04/M05 A3057 RMK AO2
KSZT 120155Z AUTO 00000KT 10SM CLR M03/M05 A3056 RMK AO2
KSZT 120135Z AUTO 00000KT 10SM CLR M03/M05 A3056 RMK AO2
KSZT 120115Z AUTO 05004KT 10SM CLR M01/M05 A3056 RMK AO2
KSZT 120055Z AUTO 00000KT 10SM CLR M01/M05 A3056 RMK AO2
KSZT 120035Z AUTO 06008KT 10SM CLR M01/M05 A3056 RMK AO2
KSZT 120015Z AUTO 06008KT 10SM CLR 00/M05 A3055 RMK AO2
KSZT 112355Z AUTO 06007KT 10SM CLR 00/M05 A3056 RMK AO2
KSZT 112335Z AUTO 04009KT 10SM CLR 00/M05 A3056 RMK AO2
KSZT 112315Z AUTO 03004KT 10SM CLR 00/M05 A3056 RMK AO2
KSZT 112255Z AUTO 05005KT 10SM CLR 01/M05 A3056 RMK AO2
KSZT 112235Z AUTO 02005KT 10SM CLR 01/M05 A3056 RMK AO2
KSZT 112215Z AUTO 04006KT 10SM CLR 01/M05 A3056 RMK AO2
KSZT 112155Z AUTO 04010KT 10SM CLR 01/M04 A3056 RMK AO2
KSZT 112135Z AUTO 03010G14KT 10SM CLR 01/M04 A3056 RMK AO2
KSZT 112115Z AUTO 05009KT 10SM CLR 01/M04 A3056 RMK AO2
KSZT 112055Z AUTO 06005KT 10SM CLR 01/M04 A3058 RMK AO2
KSZT 112035Z AUTO 05008KT 10SM CLR 01/M05 A3058 RMK AO2
KSZT 112015Z AUTO 04010G15KT 10SM CLR 00/M05 A3058 RMK AO2
KSZT 111955Z AUTO 03010KT 10SM CLR 00/M05 A3060 RMK AO2
KSZT 111935Z AUTO 03009KT 10SM CLR 00/M05 A3060 RMK AO2
KSZT 111915Z AUTO 03010KT 10SM CLR 00/M05 A3061 RMK AO2
KSZT 111855Z AUTO 04007KT 10SM CLR 00/M05 A3062 RMK AO2
KSZT 111835Z AUTO 05009KT 10SM CLR M01/M05 A3062 RMK AO2
KSZT 111815Z AUTO 04009KT 10SM CLR M01/M05 A3063 RMK AO2
KSZT 111755Z AUTO 04010KT 10SM CLR M01/M05 A3063 RMK AO2
KSZT 111735Z AUTO 03009KT 10SM CLR M02/M05 A3063 RMK AO2
KSZT 111715Z AUTO 03007KT 10SM CLR M03/M05 A3063 RMK AO2
KSZT 111655Z AUTO 02005KT 10SM CLR M03/M06 A3063 RMK AO2
KSZT 111635Z AUTO 02006KT 10SM CLR M05/M05 A3063 RMK AO2
KSZT 111615Z AUTO 00000KT 10SM CLR M07/M07 A3063 RMK AO2
KSZT 111555Z AUTO 00000KT 10SM CLR M08/M08 A3063 RMK AO2
KSZT 111535Z AUTO 00000KT 10SM CLR M07/M08 A3063 RMK AO2
KSZT 111515Z AUTO 00000KT 7SM CLR M08/M08 A3063 RMK AO2
KSZT 111455Z AUTO 00000KT 10SM CLR M07/M08 A3063 RMK AO2
KSZT 111435Z AUTO 00000KT 10SM CLR M07/M08 A3063 RMK AO2
KSZT 111415Z AUTO 00000KT 10SM CLR M07/M08 A3062 RMK AO2
KSZT 111355Z AUTO 00000KT 10SM CLR M07/M07 A3062 RMK AO2
KSZT 111335Z AUTO 00000KT 10SM CLR M07/M08 A3062 RMK AO2
KSZT 111315Z AUTO 00000KT 10SM CLR M07/M08 A3062 RMK AO2
KSZT 111255Z AUTO 00000KT 10SM CLR M07/M08 A3062 RMK AO2
KSZT 111235Z AUTO 00000KT 10SM CLR M07/M07 A3062 RMK AO2
KSZT 111215Z AUTO 00000KT 10SM CLR M07/M08 A3062 RMK AO2
KSZT 111155Z AUTO 00000KT 10SM CLR M07/M08 A3063 RMK AO2
KSZT 111135Z AUTO 00000KT 10SM CLR M07/M07 A3063 RMK AO2
KSZT 111115Z AUTO 00000KT 10SM CLR M07/M08 A3063 RMK AO2
KSZT 111055Z AUTO 35003KT 10SM CLR M07/M07 A3062 RMK AO2
KSZT 111035Z AUTO 00000KT 10SM CLR M07/M08 A3062 RMK AO2
KSZT 111015Z AUTO 00000KT 10SM CLR M07/M07 A3063 RMK AO2
KSZT 110955Z AUTO 28003KT 10SM CLR M07/M07 A3063 RMK AO2
KSZT 110935Z AUTO 00000KT 10SM CLR M07/M08 A3062 RMK AO2
KSZT 110915Z AUTO 00000KT 10SM CLR M07/M07 A3062 RMK AO2
KSZT 110855Z AUTO 00000KT 10SM CLR M07/M07 A3063 RMK AO2
KSZT 110835Z AUTO 29003KT 10SM CLR M07/M07 A3063 RMK AO2
KSZT 110815Z AUTO 00000KT 10SM CLR M07/M07 A3062 RMK AO2
KSZT 110755Z AUTO 00000KT 10SM CLR M07/M07 A3062 RMK AO2
KSZT 110735Z AUTO 00000KT 10SM CLR M07/M07 A3062 RMK AO2
KSZT 110715Z AUTO 28004KT 7SM CLR M07/M07 A3063 RMK AO2
KSZT 110655Z AUTO 00000KT 10SM CLR M07/M07 A3063 RMK AO2
KSZT 110635Z AUTO 27003KT 10SM CLR M06/M07 A3063 RMK AO2
KSZT 110615Z AUTO 27003KT 10SM CLR M07/M07 A3063 RMK AO2
KSZT 110555Z AUTO 00000KT 10SM CLR M06/M07 A3062 RMK AO2
KSZT 110535Z AUTO 00000KT 10SM CLR M06/M07 A3062 RMK AO2
KSZT 110515Z AUTO 28003KT 10SM CLR M06/M07 A3062 RMK AO2
KSZT 110455Z AUTO 00000KT 10SM CLR M06/M06 A3062 RMK AO2
KSZT 110435Z AUTO 28003KT 10SM CLR M06/M06 A3062 RMK AO2
KSZT 110415Z AUTO 00000KT 10SM CLR M06/M06 A3062 RMK AO2
KSZT 110355Z AUTO 27003KT 10SM CLR M06/M06 A3062 RMK AO2
KSZT 110335Z AUTO 00000KT 10SM CLR M06/M06 A3062 RMK AO2
KSZT 110315Z AUTO 31003KT 10SM CLR M06/M06 A3062 RMK AO2
KSZT 110255Z AUTO 00000KT 10SM CLR M05/M06 A3062 RMK AO2
KSZT 110235Z AUTO 00000KT 10SM CLR M05/M06 A3062 RMK AO2
KSZT 110215Z AUTO 00000KT 10SM CLR M05/M06 A3063 RMK AO2
KSZT 110155Z AUTO 28003KT 10SM CLR M05/M06 A3063 RMK AO2
KSZT 110135Z AUTO 00000KT 10SM CLR M04/M05 A3062 RMK AO2
KSZT 110115Z AUTO 00000KT 7SM CLR M05/M05 A3062 RMK AO2
KSZT 110055Z AUTO 00000KT 10SM CLR M04/M05 A3062 RMK AO2
KSZT 110035Z AUTO 00000KT 10SM CLR M03/M05 A3062 RMK AO2
KSZT 110015Z AUTO 00000KT 10SM CLR M03/M05 A3062 RMK AO2
KSZT 102355Z AUTO 00000KT 10SM CLR M02/M05 A3062 RMK AO2
KSZT 102335Z AUTO 00000KT 10SM CLR M02/M04 A3062 RMK AO2
KSZT 102315Z AUTO 00000KT 10SM CLR M02/M05 A3062 RMK AO2
KSZT 102255Z AUTO 00000KT 10SM CLR M01/M05 A3062 RMK AO2
KSZT 102235Z AUTO 00000KT 10SM CLR M01/M05 A3062 RMK AO2
KSZT 102215Z AUTO 00000KT 10SM CLR M01/M05 A3063 RMK AO2